sensor_id;sensor_type;location;lat;lon;timestamp;P1;durP1;ratioP1;P2;durP2;ratioP2
14776;SDS011;7480;43.124;25.686;2024-02-28T00:02:19;19.43;;;8.20;;
14776;SDS011;7480;43.124;25.686;2024-02-28T00:04:45;15.00;;;7.93;;
14776;SDS011;7480;43.124;25.686;2024-02-28T00:07:13;15.93;;;8.77;;
14776;SDS011;7480;43.124;25.686;2024-02-28T00:09:39;11.90;;;7.67;;
14776;SDS011;7480;43.124;25.686;2024-02-28T00:12:06;19.93;;;8.73;;
14776;SDS011;7480;43.124;25.686;2024-02-28T00:14:33;20.63;;;8.07;;
14776;SDS011;7480;43.124;25.686;2024-02-28T00:16:59;18.23;;;8.13;;
14776;SDS011;7480;43.124;25.686;2024-02-28T00:19:26;16.13;;;7.70;;
14776;SDS011;7480;43.124;25.686;2024-02-28T00:21:53;18.67;;;7.87;;
14776;SDS011;7480;43.124;25.686;2024-02-28T00:24:19;16.57;;;8.33;;
14776;SDS011;7480;43.124;25.686;2024-02-28T00:26:46;18.10;;;8.67;;
14776;SDS011;7480;43.124;25.686;2024-02-28T00:29:12;13.87;;;8.60;;
14776;SDS011;7480;43.124;25.686;2024-02-28T00:31:39;16.47;;;8.37;;
14776;SDS011;7480;43.124;25.686;2024-02-28T00:34:05;16.93;;;8.43;;
14776;SDS011;7480;43.124;25.686;2024-02-28T00:36:35;15.40;;;8.00;;
14776;SDS011;7480;43.124;25.686;2024-02-28T00:39:17;16.50;;;9.03;;
14776;SDS011;7480;43.124;25.686;2024-02-28T00:41:44;15.80;;;8.47;;
14776;SDS011;7480;43.124;25.686;2024-02-28T00:44:10;19.70;;;8.87;;
14776;SDS011;7480;43.124;25.686;2024-02-28T00:46:38;16.27;;;9.03;;
14776;SDS011;7480;43.124;25.686;2024-02-28T00:49:05;18.13;;;9.77;;
14776;SDS011;7480;43.124;25.686;2024-02-28T00:51:32;15.63;;;8.30;;
14776;SDS011;7480;43.124;25.686;2024-02-28T00:53:58;16.77;;;8.33;;
14776;SDS011;7480;43.124;25.686;2024-02-28T00:56:25;20.03;;;8.57;;
14776;SDS011;7480;43.124;25.686;2024-02-28T00:58:53;27.33;;;8.33;;
14776;SDS011;7480;43.124;25.686;2024-02-28T01:01:20;18.53;;;8.27;;
14776;SDS011;7480;43.124;25.686;2024-02-28T01:03:46;16.17;;;8.10;;
14776;SDS011;7480;43.124;25.686;2024-02-28T01:06:13;16.83;;;7.60;;
14776;SDS011;7480;43.124;25.686;2024-02-28T01:08:41;17.60;;;8.07;;
14776;SDS011;7480;43.124;25.686;2024-02-28T01:11:07;15.10;;;7.80;;
14776;SDS011;7480;43.124;25.686;2024-02-28T01:13:34;31.63;;;13.57;;
14776;SDS011;7480;43.124;25.686;2024-02-28T01:16:01;20.90;;;9.03;;
14776;SDS011;7480;43.124;25.686;2024-02-28T01:18:27;19.77;;;9.67;;
14776;SDS011;7480;43.124;25.686;2024-02-28T01:20:57;18.80;;;8.83;;
14776;SDS011;7480;43.124;25.686;2024-02-28T01:23:23;16.27;;;7.87;;
14776;SDS011;7480;43.124;25.686;2024-02-28T01:25:50;22.53;;;8.90;;
14776;SDS011;7480;43.124;25.686;2024-02-28T01:28:17;15.50;;;7.93;;
14776;SDS011;7480;43.124;25.686;2024-02-28T01:30:43;17.13;;;7.93;;
14776;SDS011;7480;43.124;25.686;2024-02-28T01:33:10;14.67;;;7.13;;
14776;SDS011;7480;43.124;25.686;2024-02-28T01:35:39;19.70;;;8.60;;
14776;SDS011;7480;43.124;25.686;2024-02-28T01:38:05;18.03;;;8.57;;
14776;SDS011;7480;43.124;25.686;2024-02-28T01:40:32;18.10;;;8.80;;
14776;SDS011;7480;43.124;25.686;2024-02-28T01:43:02;20.10;;;9.30;;
14776;SDS011;7480;43.124;25.686;2024-02-28T01:45:29;19.80;;;7.83;;
14776;SDS011;7480;43.124;25.686;2024-02-28T01:47:55;16.03;;;8.27;;
14776;SDS011;7480;43.124;25.686;2024-02-28T01:50:22;15.30;;;7.90;;
14776;SDS011;7480;43.124;25.686;2024-02-28T01:52:48;13.73;;;8.30;;
14776;SDS011;7480;43.124;25.686;2024-02-28T01:55:15;23.67;;;9.10;;
14776;SDS011;7480;43.124;25.686;2024-02-28T01:57:42;18.33;;;8.03;;
14776;SDS011;7480;43.124;25.686;2024-02-28T02:00:08;16.67;;;8.73;;
14776;SDS011;7480;43.124;25.686;2024-02-28T02:02:35;16.67;;;8.83;;
14776;SDS011;7480;43.124;25.686;2024-02-28T02:05:02;16.07;;;8.67;;
14776;SDS011;7480;43.124;25.686;2024-02-28T02:07:29;19.43;;;8.50;;
14776;SDS011;7480;43.124;25.686;2024-02-28T02:09:56;14.07;;;8.43;;
14776;SDS011;7480;43.124;25.686;2024-02-28T02:12:22;19.53;;;10.90;;
14776;SDS011;7480;43.124;25.686;2024-02-28T02:14:49;22.57;;;11.23;;
14776;SDS011;7480;43.124;25.686;2024-02-28T02:17:16;19.60;;;9.93;;
14776;SDS011;7480;43.124;25.686;2024-02-28T02:19:42;13.77;;;8.37;;
14776;SDS011;7480;43.124;25.686;2024-02-28T02:22:09;15.57;;;8.87;;
14776;SDS011;7480;43.124;25.686;2024-02-28T02:24:36;21.23;;;8.93;;
14776;SDS011;7480;43.124;25.686;2024-02-28T02:27:03;18.77;;;8.57;;
14776;SDS011;7480;43.124;25.686;2024-02-28T02:29:32;17.97;;;8.27;;
14776;SDS011;7480;43.124;25.686;2024-02-28T02:31:59;18.30;;;8.63;;
14776;SDS011;7480;43.124;25.686;2024-02-28T02:34:25;16.60;;;9.60;;
14776;SDS011;7480;43.124;25.686;2024-02-28T02:36:52;22.90;;;9.67;;
14776;SDS011;7480;43.124;25.686;2024-02-28T02:39:19;17.70;;;8.63;;
14776;SDS011;7480;43.124;25.686;2024-02-28T02:41:45;20.87;;;8.87;;
14776;SDS011;7480;43.124;25.686;2024-02-28T02:44:13;14.07;;;8.50;;
14776;SDS011;7480;43.124;25.686;2024-02-28T02:46:40;15.10;;;8.77;;
14776;SDS011;7480;43.124;25.686;2024-02-28T02:49:06;16.93;;;8.93;;
14776;SDS011;7480;43.124;25.686;2024-02-28T02:51:33;16.47;;;8.70;;
14776;SDS011;7480;43.124;25.686;2024-02-28T02:53:59;15.73;;;8.60;;
14776;SDS011;7480;43.124;25.686;2024-02-28T02:56:26;17.03;;;8.13;;
14776;SDS011;7480;43.124;25.686;2024-02-28T02:58:53;20.73;;;9.13;;
14776;SDS011;7480;43.124;25.686;2024-02-28T03:01:19;18.33;;;8.67;;
14776;SDS011;7480;43.124;25.686;2024-02-28T03:03:46;16.53;;;8.60;;
14776;SDS011;7480;43.124;25.686;2024-02-28T03:06:13;21.63;;;9.87;;
14776;SDS011;7480;43.124;25.686;2024-02-28T03:08:40;23.23;;;9.57;;
14776;SDS011;7480;43.124;25.686;2024-02-28T03:11:06;19.30;;;10.27;;
14776;SDS011;7480;43.124;25.686;2024-02-28T03:13:35;20.40;;;10.53;;
14776;SDS011;7480;43.124;25.686;2024-02-28T03:16:03;18.07;;;11.10;;
14776;SDS011;7480;43.124;25.686;2024-02-28T03:18:29;22.23;;;11.60;;
14776;SDS011;7480;43.124;25.686;2024-02-28T03:20:56;21.17;;;12.13;;
14776;SDS011;7480;43.124;25.686;2024-02-28T03:23:22;18.03;;;9.47;;
14776;SDS011;7480;43.124;25.686;2024-02-28T03:25:49;18.20;;;10.43;;
14776;SDS011;7480;43.124;25.686;2024-02-28T03:28:15;21.17;;;10.53;;
14776;SDS011;7480;43.124;25.686;2024-02-28T03:30:42;18.27;;;9.43;;
14776;SDS011;7480;43.124;25.686;2024-02-28T03:33:09;18.67;;;12.00;;
14776;SDS011;7480;43.124;25.686;2024-02-28T03:35:35;19.30;;;10.47;;
14776;SDS011;7480;43.124;25.686;2024-02-28T03:38:02;20.73;;;10.97;;
14776;SDS011;7480;43.124;25.686;2024-02-28T03:40:29;21.63;;;11.63;;
14776;SDS011;7480;43.124;25.686;2024-02-28T03:42:55;22.30;;;13.43;;
14776;SDS011;7480;43.124;25.686;2024-02-28T03:45:22;24.80;;;13.80;;
14776;SDS011;7480;43.124;25.686;2024-02-28T03:47:49;29.77;;;14.53;;
14776;SDS011;7480;43.124;25.686;2024-02-28T03:50:15;24.87;;;14.43;;
14776;SDS011;7480;43.124;25.686;2024-02-28T03:52:42;24.80;;;17.17;;
14776;SDS011;7480;43.124;25.686;2024-02-28T03:55:08;26.57;;;16.87;;
14776;SDS011;7480;43.124;25.686;2024-02-28T03:57:35;26.80;;;15.60;;
14776;SDS011;7480;43.124;25.686;2024-02-28T04:00:02;21.90;;;14.07;;
14776;SDS011;7480;43.124;25.686;2024-02-28T04:02:29;23.33;;;13.83;;
14776;SDS011;7480;43.124;25.686;2024-02-28T04:04:55;25.20;;;13.07;;
14776;SDS011;7480;43.124;25.686;2024-02-28T04:07:22;18.13;;;11.73;;
14776;SDS011;7480;43.124;25.686;2024-02-28T04:09:48;22.10;;;12.40;;
14776;SDS011;7480;43.124;25.686;2024-02-28T04:12:15;21.27;;;13.30;;
14776;SDS011;7480;43.124;25.686;2024-02-28T04:14:41;16.40;;;11.17;;
14776;SDS011;7480;43.124;25.686;2024-02-28T04:17:08;16.97;;;11.20;;
14776;SDS011;7480;43.124;25.686;2024-02-28T04:19:35;18.87;;;12.57;;
14776;SDS011;7480;43.124;25.686;2024-02-28T04:22:05;23.27;;;12.17;;
14776;SDS011;7480;43.124;25.686;2024-02-28T04:24:32;20.83;;;12.27;;
14776;SDS011;7480;43.124;25.686;2024-02-28T04:26:59;27.30;;;14.53;;
14776;SDS011;7480;43.124;25.686;2024-02-28T04:29:26;21.20;;;12.37;;
14776;SDS011;7480;43.124;25.686;2024-02-28T04:31:52;28.50;;;15.17;;
14776;SDS011;7480;43.124;25.686;2024-02-28T04:34:19;22.20;;;13.00;;
14776;SDS011;7480;43.124;25.686;2024-02-28T04:36:45;22.43;;;12.90;;
14776;SDS011;7480;43.124;25.686;2024-02-28T04:39:12;30.67;;;12.43;;
14776;SDS011;7480;43.124;25.686;2024-02-28T04:41:38;18.80;;;11.07;;
14776;SDS011;7480;43.124;25.686;2024-02-28T04:44:05;23.73;;;11.77;;
14776;SDS011;7480;43.124;25.686;2024-02-28T04:46:32;19.70;;;12.03;;
14776;SDS011;7480;43.124;25.686;2024-02-28T04:48:59;24.13;;;12.37;;
14776;SDS011;7480;43.124;25.686;2024-02-28T04:51:25;19.00;;;11.63;;
14776;SDS011;7480;43.124;25.686;2024-02-28T04:53:52;27.40;;;11.83;;
14776;SDS011;7480;43.124;25.686;2024-02-28T04:56:18;20.90;;;11.97;;
14776;SDS011;7480;43.124;25.686;2024-02-28T04:58:45;18.77;;;11.50;;
14776;SDS011;7480;43.124;25.686;2024-02-28T05:01:11;27.83;;;12.23;;
14776;SDS011;7480;43.124;25.686;2024-02-28T05:03:39;25.60;;;12.50;;
14776;SDS011;7480;43.124;25.686;2024-02-28T05:06:06;31.33;;;16.73;;
14776;SDS011;7480;43.124;25.686;2024-02-28T05:08:32;21.53;;;11.83;;
14776;SDS011;7480;43.124;25.686;2024-02-28T05:10:59;20.80;;;11.90;;
14776;SDS011;7480;43.124;25.686;2024-02-28T05:13:25;25.47;;;13.77;;
14776;SDS011;7480;43.124;25.686;2024-02-28T05:15:52;33.57;;;13.67;;
14776;SDS011;7480;43.124;25.686;2024-02-28T05:18:19;24.83;;;12.77;;
14776;SDS011;7480;43.124;25.686;2024-02-28T05:20:45;26.30;;;11.53;;
14776;SDS011;7480;43.124;25.686;2024-02-28T05:23:12;21.13;;;11.27;;
14776;SDS011;7480;43.124;25.686;2024-02-28T05:25:39;16.03;;;10.30;;
14776;SDS011;7480;43.124;25.686;2024-02-28T05:28:05;23.67;;;11.13;;
14776;SDS011;7480;43.124;25.686;2024-02-28T05:30:32;21.43;;;11.07;;
14776;SDS011;7480;43.124;25.686;2024-02-28T05:32:59;24.87;;;12.07;;
14776;SDS011;7480;43.124;25.686;2024-02-28T05:35:25;19.60;;;10.90;;
14776;SDS011;7480;43.124;25.686;2024-02-28T05:37:57;21.20;;;11.57;;
14776;SDS011;7480;43.124;25.686;2024-02-28T05:40:24;27.53;;;13.17;;
14776;SDS011;7480;43.124;25.686;2024-02-28T05:42:51;35.53;;;15.97;;
14776;SDS011;7480;43.124;25.686;2024-02-28T05:45:17;33.60;;;15.93;;
14776;SDS011;7480;43.124;25.686;2024-02-28T05:47:45;32.37;;;14.17;;
14776;SDS011;7480;43.124;25.686;2024-02-28T05:50:12;25.03;;;13.63;;
14776;SDS011;7480;43.124;25.686;2024-02-28T05:52:41;28.75;;;15.00;;
14776;SDS011;7480;43.124;25.686;2024-02-28T05:55:08;23.03;;;13.33;;
14776;SDS011;7480;43.124;25.686;2024-02-28T05:57:34;27.97;;;14.47;;
14776;SDS011;7480;43.124;25.686;2024-02-28T06:00:02;27.70;;;13.33;;
14776;SDS011;7480;43.124;25.686;2024-02-28T06:02:36;23.53;;;14.43;;
14776;SDS011;7480;43.124;25.686;2024-02-28T06:05:03;19.20;;;11.37;;
14776;SDS011;7480;43.124;25.686;2024-02-28T06:07:30;23.17;;;11.40;;
14776;SDS011;7480;43.124;25.686;2024-02-28T06:09:57;28.40;;;12.70;;
14776;SDS011;7480;43.124;25.686;2024-02-28T06:12:24;24.57;;;12.50;;
14776;SDS011;7480;43.124;25.686;2024-02-28T06:14:50;30.27;;;13.10;;
14776;SDS011;7480;43.124;25.686;2024-02-28T06:17:17;25.87;;;12.67;;
14776;SDS011;7480;43.124;25.686;2024-02-28T06:19:44;24.43;;;11.93;;
14776;SDS011;7480;43.124;25.686;2024-02-28T06:22:10;26.27;;;11.97;;
14776;SDS011;7480;43.124;25.686;2024-02-28T06:24:37;23.07;;;12.47;;
14776;SDS011;7480;43.124;25.686;2024-02-28T06:27:04;29.40;;;14.70;;
14776;SDS011;7480;43.124;25.686;2024-02-28T06:29:34;20.57;;;12.20;;
14776;SDS011;7480;43.124;25.686;2024-02-28T06:32:01;22.07;;;12.30;;
14776;SDS011;7480;43.124;25.686;2024-02-28T06:34:27;33.27;;;13.67;;
14776;SDS011;7480;43.124;25.686;2024-02-28T06:36:54;28.83;;;13.20;;
14776;SDS011;7480;43.124;25.686;2024-02-28T06:39:21;20.73;;;11.43;;
14776;SDS011;7480;43.124;25.686;2024-02-28T06:41:47;25.83;;;13.60;;
14776;SDS011;7480;43.124;25.686;2024-02-28T06:44:20;24.33;;;14.20;;
14776;SDS011;7480;43.124;25.686;2024-02-28T06:46:46;28.27;;;13.20;;
14776;SDS011;7480;43.124;25.686;2024-02-28T06:49:13;20.67;;;12.30;;
14776;SDS011;7480;43.124;25.686;2024-02-28T06:51:39;24.53;;;12.53;;
14776;SDS011;7480;43.124;25.686;2024-02-28T06:54:06;23.03;;;12.63;;
14776;SDS011;7480;43.124;25.686;2024-02-28T06:56:33;26.90;;;14.40;;
14776;SDS011;7480;43.124;25.686;2024-02-28T06:59:00;25.27;;;13.77;;
14776;SDS011;7480;43.124;25.686;2024-02-28T07:01:26;27.07;;;13.27;;
14776;SDS011;7480;43.124;25.686;2024-02-28T07:03:53;31.97;;;14.63;;
14776;SDS011;7480;43.124;25.686;2024-02-28T07:06:19;26.53;;;14.43;;
14776;SDS011;7480;43.124;25.686;2024-02-28T07:08:46;26.57;;;13.20;;
14776;SDS011;7480;43.124;25.686;2024-02-28T07:11:13;26.13;;;13.07;;
14776;SDS011;7480;43.124;25.686;2024-02-28T07:13:40;18.27;;;11.13;;
14776;SDS011;7480;43.124;25.686;2024-02-28T07:16:07;21.67;;;11.97;;
14776;SDS011;7480;43.124;25.686;2024-02-28T07:18:34;21.67;;;13.13;;
14776;SDS011;7480;43.124;25.686;2024-02-28T07:21:01;24.10;;;12.70;;
14776;SDS011;7480;43.124;25.686;2024-02-28T07:23:27;31.33;;;13.47;;
14776;SDS011;7480;43.124;25.686;2024-02-28T07:25:54;27.07;;;14.23;;
14776;SDS011;7480;43.124;25.686;2024-02-28T07:28:21;20.73;;;12.63;;
14776;SDS011;7480;43.124;25.686;2024-02-28T07:30:47;25.07;;;13.40;;
14776;SDS011;7480;43.124;25.686;2024-02-28T07:33:15;25.63;;;12.93;;
14776;SDS011;7480;43.124;25.686;2024-02-28T07:35:45;25.20;;;13.40;;
14776;SDS011;7480;43.124;25.686;2024-02-28T07:38:12;23.77;;;12.13;;
14776;SDS011;7480;43.124;25.686;2024-02-28T07:40:39;18.40;;;12.37;;
14776;SDS011;7480;43.124;25.686;2024-02-28T07:43:05;18.93;;;12.63;;
14776;SDS011;7480;43.124;25.686;2024-02-28T07:45:32;21.87;;;11.33;;
14776;SDS011;7480;43.124;25.686;2024-02-28T07:47:59;24.53;;;12.90;;
14776;SDS011;7480;43.124;25.686;2024-02-28T07:50:25;28.70;;;14.63;;
14776;SDS011;7480;43.124;25.686;2024-02-28T07:52:53;20.20;;;11.43;;
14776;SDS011;7480;43.124;25.686;2024-02-28T07:55:20;23.10;;;12.83;;
14776;SDS011;7480;43.124;25.686;2024-02-28T07:57:52;27.27;;;14.03;;
14776;SDS011;7480;43.124;25.686;2024-02-28T08:00:19;23.57;;;13.30;;
14776;SDS011;7480;43.124;25.686;2024-02-28T08:02:46;28.37;;;13.83;;
14776;SDS011;7480;43.124;25.686;2024-02-28T08:05:13;31.63;;;14.17;;
14776;SDS011;7480;43.124;25.686;2024-02-28T08:07:40;18.63;;;12.07;;
14776;SDS011;7480;43.124;25.686;2024-02-28T08:10:07;21.67;;;13.63;;
14776;SDS011;7480;43.124;25.686;2024-02-28T08:12:36;26.10;;;13.80;;
14776;SDS011;7480;43.124;25.686;2024-02-28T08:15:03;23.33;;;14.30;;
14776;SDS011;7480;43.124;25.686;2024-02-28T08:17:30;25.60;;;14.77;;
14776;SDS011;7480;43.124;25.686;2024-02-28T08:19:56;28.87;;;14.53;;
14776;SDS011;7480;43.124;25.686;2024-02-28T08:22:23;24.87;;;14.37;;
14776;SDS011;7480;43.124;25.686;2024-02-28T08:24:51;26.43;;;15.13;;
14776;SDS011;7480;43.124;25.686;2024-02-28T08:27:18;26.60;;;14.83;;
14776;SDS011;7480;43.124;25.686;2024-02-28T08:29:45;22.00;;;13.73;;
14776;SDS011;7480;43.124;25.686;2024-02-28T08:32:13;23.60;;;11.73;;
14776;SDS011;7480;43.124;25.686;2024-02-28T08:34:43;27.27;;;14.13;;
14776;SDS011;7480;43.124;25.686;2024-02-28T08:37:09;31.40;;;16.67;;
14776;SDS011;7480;43.124;25.686;2024-02-28T08:39:36;28.70;;;14.47;;
14776;SDS011;7480;43.124;25.686;2024-02-28T08:42:02;26.77;;;14.63;;
14776;SDS011;7480;43.124;25.686;2024-02-28T08:44:29;25.10;;;14.57;;
14776;SDS011;7480;43.124;25.686;2024-02-28T08:46:55;27.47;;;16.20;;
14776;SDS011;7480;43.124;25.686;2024-02-28T08:49:22;27.43;;;13.33;;
14776;SDS011;7480;43.124;25.686;2024-02-28T08:51:49;22.93;;;13.20;;
14776;SDS011;7480;43.124;25.686;2024-02-28T08:54:15;24.07;;;12.80;;
14776;SDS011;7480;43.124;25.686;2024-02-28T08:56:42;21.20;;;12.40;;
14776;SDS011;7480;43.124;25.686;2024-02-28T08:59:21;24.83;;;12.87;;
14776;SDS011;7480;43.124;25.686;2024-02-28T09:01:48;28.57;;;12.23;;
14776;SDS011;7480;43.124;25.686;2024-02-28T09:04:15;20.07;;;11.93;;
14776;SDS011;7480;43.124;25.686;2024-02-28T09:06:41;23.27;;;13.20;;
14776;SDS011;7480;43.124;25.686;2024-02-28T09:09:08;21.30;;;10.83;;
14776;SDS011;7480;43.124;25.686;2024-02-28T09:11:35;24.47;;;12.13;;
14776;SDS011;7480;43.124;25.686;2024-02-28T09:14:01;25.93;;;12.60;;
14776;SDS011;7480;43.124;25.686;2024-02-28T09:16:28;20.13;;;11.40;;
14776;SDS011;7480;43.124;25.686;2024-02-28T09:18:55;22.80;;;13.30;;
14776;SDS011;7480;43.124;25.686;2024-02-28T09:21:21;20.87;;;11.97;;
14776;SDS011;7480;43.124;25.686;2024-02-28T09:23:48;19.17;;;11.80;;
14776;SDS011;7480;43.124;25.686;2024-02-28T09:26:15;16.87;;;10.47;;
14776;SDS011;7480;43.124;25.686;2024-02-28T09:28:41;19.83;;;11.27;;
14776;SDS011;7480;43.124;25.686;2024-02-28T09:31:08;25.50;;;12.50;;
14776;SDS011;7480;43.124;25.686;2024-02-28T09:33:35;21.53;;;12.20;;
14776;SDS011;7480;43.124;25.686;2024-02-28T09:36:03;18.57;;;11.53;;
14776;SDS011;7480;43.124;25.686;2024-02-28T09:38:30;23.87;;;12.83;;
14776;SDS011;7480;43.124;25.686;2024-02-28T09:40:59;27.77;;;12.93;;
14776;SDS011;7480;43.124;25.686;2024-02-28T09:43:28;19.13;;;11.57;;
14776;SDS011;7480;43.124;25.686;2024-02-28T09:46:04;22.30;;;13.40;;
14776;SDS011;7480;43.124;25.686;2024-02-28T09:48:32;21.87;;;13.20;;
14776;SDS011;7480;43.124;25.686;2024-02-28T09:50:59;23.00;;;12.83;;
14776;SDS011;7480;43.124;25.686;2024-02-28T09:53:26;25.17;;;12.60;;
14776;SDS011;7480;43.124;25.686;2024-02-28T09:55:53;24.67;;;12.60;;
14776;SDS011;7480;43.124;25.686;2024-02-28T09:58:19;20.00;;;12.23;;
14776;SDS011;7480;43.124;25.686;2024-02-28T10:00:47;20.90;;;12.77;;
14776;SDS011;7480;43.124;25.686;2024-02-28T10:03:18;23.37;;;13.17;;
14776;SDS011;7480;43.124;25.686;2024-02-28T10:05:48;24.20;;;11.83;;
14776;SDS011;7480;43.124;25.686;2024-02-28T10:08:15;21.27;;;12.57;;
14776;SDS011;7480;43.124;25.686;2024-02-28T10:10:45;23.03;;;11.60;;
14776;SDS011;7480;43.124;25.686;2024-02-28T10:13:12;22.13;;;11.60;;
14776;SDS011;7480;43.124;25.686;2024-02-28T10:15:39;19.17;;;11.73;;
14776;SDS011;7480;43.124;25.686;2024-02-28T10:18:06;22.07;;;12.00;;
14776;SDS011;7480;43.124;25.686;2024-02-28T10:20:33;21.17;;;11.00;;
14776;SDS011;7480;43.124;25.686;2024-02-28T10:23:03;18.17;;;11.07;;
14776;SDS011;7480;43.124;25.686;2024-02-28T10:25:33;21.95;;;12.52;;
14776;SDS011;7480;43.124;25.686;2024-02-28T10:28:10;26.83;;;13.93;;
14776;SDS011;7480;43.124;25.686;2024-02-28T10:30:40;18.63;;;10.90;;
14776;SDS011;7480;43.124;25.686;2024-02-28T10:33:10;20.13;;;10.50;;
14776;SDS011;7480;43.124;25.686;2024-02-28T10:35:38;17.80;;;10.47;;
14776;SDS011;7480;43.124;25.686;2024-02-28T10:38:05;19.90;;;10.60;;
14776;SDS011;7480;43.124;25.686;2024-02-28T10:40:32;20.27;;;10.40;;
14776;SDS011;7480;43.124;25.686;2024-02-28T10:42:58;21.27;;;10.57;;
14776;SDS011;7480;43.124;25.686;2024-02-28T10:45:26;25.47;;;11.53;;
14776;SDS011;7480;43.124;25.686;2024-02-28T10:48:15;16.70;;;10.27;;
14776;SDS011;7480;43.124;25.686;2024-02-28T10:50:43;20.83;;;10.27;;
14776;SDS011;7480;43.124;25.686;2024-02-28T10:53:12;18.03;;;9.83;;
14776;SDS011;7480;43.124;25.686;2024-02-28T10:55:40;15.77;;;8.90;;
14776;SDS011;7480;43.124;25.686;2024-02-28T10:58:07;17.37;;;9.90;;
14776;SDS011;7480;43.124;25.686;2024-02-28T11:00:36;16.43;;;9.70;;
14776;SDS011;7480;43.124;25.686;2024-02-28T11:03:05;21.90;;;9.77;;
14776;SDS011;7480;43.124;25.686;2024-02-28T11:05:36;16.37;;;7.83;;
14776;SDS011;7480;43.124;25.686;2024-02-28T11:08:05;17.93;;;8.97;;
14776;SDS011;7480;43.124;25.686;2024-02-28T11:10:34;15.07;;;8.70;;
14776;SDS011;7480;43.124;25.686;2024-02-28T11:13:01;18.97;;;9.70;;
14776;SDS011;7480;43.124;25.686;2024-02-28T11:15:27;15.93;;;8.43;;
14776;SDS011;7480;43.124;25.686;2024-02-28T11:17:54;13.60;;;8.50;;
14776;SDS011;7480;43.124;25.686;2024-02-28T11:20:21;15.33;;;8.57;;
14776;SDS011;7480;43.124;25.686;2024-02-28T11:22:56;14.57;;;8.30;;
14776;SDS011;7480;43.124;25.686;2024-02-28T11:25:23;16.27;;;8.77;;
14776;SDS011;7480;43.124;25.686;2024-02-28T11:27:50;17.73;;;8.73;;
14776;SDS011;7480;43.124;25.686;2024-02-28T11:30:17;16.93;;;8.47;;
14776;SDS011;7480;43.124;25.686;2024-02-28T11:32:43;16.43;;;8.80;;
14776;SDS011;7480;43.124;25.686;2024-02-28T11:35:12;14.37;;;8.07;;
14776;SDS011;7480;43.124;25.686;2024-02-28T11:37:40;15.70;;;8.77;;
14776;SDS011;7480;43.124;25.686;2024-02-28T11:40:08;14.83;;;8.97;;
14776;SDS011;7480;43.124;25.686;2024-02-28T11:42:39;15.83;;;8.20;;
14776;SDS011;7480;43.124;25.686;2024-02-28T11:45:09;16.83;;;8.83;;
14776;SDS011;7480;43.124;25.686;2024-02-28T11:47:36;14.90;;;8.60;;
14776;SDS011;7480;43.124;25.686;2024-02-28T11:50:03;16.63;;;9.03;;
14776;SDS011;7480;43.124;25.686;2024-02-28T11:52:36;16.53;;;7.83;;
14776;SDS011;7480;43.124;25.686;2024-02-28T11:55:03;15.33;;;8.93;;
14776;SDS011;7480;43.124;25.686;2024-02-28T11:57:30;15.40;;;8.70;;
14776;SDS011;7480;43.124;25.686;2024-02-28T12:00:03;19.10;;;8.93;;
14776;SDS011;7480;43.124;25.686;2024-02-28T12:02:33;15.90;;;8.97;;
14776;SDS011;7480;43.124;25.686;2024-02-28T12:05:00;19.47;;;9.23;;
14776;SDS011;7480;43.124;25.686;2024-02-28T12:07:26;15.53;;;8.53;;
14776;SDS011;7480;43.124;25.686;2024-02-28T12:09:54;17.37;;;9.17;;
14776;SDS011;7480;43.124;25.686;2024-02-28T12:12:23;14.53;;;9.30;;
14776;SDS011;7480;43.124;25.686;2024-02-28T12:14:51;14.03;;;8.40;;
14776;SDS011;7480;43.124;25.686;2024-02-28T12:17:18;15.07;;;7.70;;
14776;SDS011;7480;43.124;25.686;2024-02-28T12:19:45;18.87;;;8.23;;
14776;SDS011;7480;43.124;25.686;2024-02-28T12:22:11;16.90;;;8.80;;
14776;SDS011;7480;43.124;25.686;2024-02-28T12:24:38;16.67;;;8.37;;
14776;SDS011;7480;43.124;25.686;2024-02-28T12:27:05;16.77;;;8.60;;
14776;SDS011;7480;43.124;25.686;2024-02-28T12:29:31;15.40;;;9.07;;
14776;SDS011;7480;43.124;25.686;2024-02-28T12:31:58;14.30;;;7.40;;
14776;SDS011;7480;43.124;25.686;2024-02-28T12:34:24;17.90;;;7.97;;
14776;SDS011;7480;43.124;25.686;2024-02-28T12:36:51;18.77;;;8.67;;
14776;SDS011;7480;43.124;25.686;2024-02-28T12:39:18;13.20;;;8.37;;
14776;SDS011;7480;43.124;25.686;2024-02-28T12:41:44;15.50;;;9.03;;
14776;SDS011;7480;43.124;25.686;2024-02-28T12:44:11;16.60;;;8.57;;
14776;SDS011;7480;43.124;25.686;2024-02-28T12:46:37;18.00;;;7.47;;
14776;SDS011;7480;43.124;25.686;2024-02-28T12:49:04;16.93;;;8.20;;
14776;SDS011;7480;43.124;25.686;2024-02-28T12:51:40;18.90;;;8.17;;
14776;SDS011;7480;43.124;25.686;2024-02-28T12:54:07;14.20;;;8.40;;
14776;SDS011;7480;43.124;25.686;2024-02-28T12:56:38;13.30;;;8.47;;
14776;SDS011;7480;43.124;25.686;2024-02-28T12:59:05;18.47;;;8.07;;
14776;SDS011;7480;43.124;25.686;2024-02-28T13:01:33;16.90;;;8.37;;
14776;SDS011;7480;43.124;25.686;2024-02-28T13:04:00;12.30;;;7.47;;
14776;SDS011;7480;43.124;25.686;2024-02-28T13:06:27;16.67;;;7.63;;
14776;SDS011;7480;43.124;25.686;2024-02-28T13:08:54;12.70;;;7.00;;
14776;SDS011;7480;43.124;25.686;2024-02-28T13:11:24;16.43;;;8.40;;
14776;SDS011;7480;43.124;25.686;2024-02-28T13:13:51;14.83;;;7.70;;
14776;SDS011;7480;43.124;25.686;2024-02-28T13:16:18;14.03;;;7.30;;
14776;SDS011;7480;43.124;25.686;2024-02-28T13:18:45;14.90;;;7.73;;
14776;SDS011;7480;43.124;25.686;2024-02-28T13:21:12;15.73;;;8.13;;
14776;SDS011;7480;43.124;25.686;2024-02-28T13:23:39;12.13;;;6.97;;
14776;SDS011;7480;43.124;25.686;2024-02-28T13:26:06;13.47;;;7.30;;
14776;SDS011;7480;43.124;25.686;2024-02-28T13:28:33;15.10;;;8.00;;
14776;SDS011;7480;43.124;25.686;2024-02-28T13:31:00;13.23;;;6.93;;
14776;SDS011;7480;43.124;25.686;2024-02-28T13:33:28;15.17;;;7.10;;
14776;SDS011;7480;43.124;25.686;2024-02-28T13:35:55;19.47;;;8.63;;
14776;SDS011;7480;43.124;25.686;2024-02-28T13:38:21;16.20;;;7.70;;
14776;SDS011;7480;43.124;25.686;2024-02-28T13:40:48;14.00;;;7.13;;
14776;SDS011;7480;43.124;25.686;2024-02-28T13:43:16;11.10;;;6.27;;
14776;SDS011;7480;43.124;25.686;2024-02-28T13:45:49;14.90;;;7.07;;
14776;SDS011;7480;43.124;25.686;2024-02-28T13:48:22;18.47;;;9.00;;
14776;SDS011;7480;43.124;25.686;2024-02-28T13:50:51;15.37;;;7.33;;
14776;SDS011;7480;43.124;25.686;2024-02-28T13:53:17;12.90;;;7.73;;
14776;SDS011;7480;43.124;25.686;2024-02-28T13:55:44;15.07;;;7.63;;
14776;SDS011;7480;43.124;25.686;2024-02-28T13:58:14;12.30;;;7.37;;
14776;SDS011;7480;43.124;25.686;2024-02-28T14:00:44;13.00;;;7.27;;
14776;SDS011;7480;43.124;25.686;2024-02-28T14:03:14;14.97;;;7.67;;
14776;SDS011;7480;43.124;25.686;2024-02-28T14:05:41;14.13;;;7.83;;
14776;SDS011;7480;43.124;25.686;2024-02-28T14:08:08;18.80;;;8.77;;
14776;SDS011;7480;43.124;25.686;2024-02-28T14:10:36;16.10;;;7.40;;
14776;SDS011;7480;43.124;25.686;2024-02-28T14:13:04;18.43;;;8.03;;
14776;SDS011;7480;43.124;25.686;2024-02-28T14:15:31;15.80;;;8.13;;
14776;SDS011;7480;43.124;25.686;2024-02-28T14:17:58;16.87;;;7.60;;
14776;SDS011;7480;43.124;25.686;2024-02-28T14:20:24;18.10;;;7.93;;
14776;SDS011;7480;43.124;25.686;2024-02-28T14:22:51;20.40;;;8.67;;
14776;SDS011;7480;43.124;25.686;2024-02-28T14:25:18;20.40;;;8.87;;
14776;SDS011;7480;43.124;25.686;2024-02-28T14:27:47;18.70;;;9.27;;
14776;SDS011;7480;43.124;25.686;2024-02-28T14:30:14;14.50;;;7.82;;